sensor_id;sensor_type;location;lat;lon;timestamp;P1;durP1;ratioP1;P2;durP2;ratioP2
16775;SDS011;8505;49.456;8.164;2023-06-14T00:02:03;7.65;;;5.05;;
16775;SDS011;8505;49.456;8.164;2023-06-14T00:04:34;7.70;;;4.75;;
16775;SDS011;8505;49.456;8.164;2023-06-14T00:07:03;7.82;;;5.10;;
16775;SDS011;8505;49.456;8.164;2023-06-14T00:09:32;8.57;;;5.38;;
16775;SDS011;8505;49.456;8.164;2023-06-14T00:12:00;8.43;;;5.35;;
16775;SDS011;8505;49.456;8.164;2023-06-14T00:14:28;7.13;;;5.00;;
16775;SDS011;8505;49.456;8.164;2023-06-14T00:16:56;6.93;;;5.00;;
16775;SDS011;8505;49.456;8.164;2023-06-14T00:19:25;8.57;;;5.10;;
16775;SDS011;8505;49.456;8.164;2023-06-14T00:21:53;7.85;;;5.18;;
16775;SDS011;8505;49.456;8.164;2023-06-14T00:24:21;8.13;;;4.80;;
16775;SDS011;8505;49.456;8.164;2023-06-14T00:26:50;10.75;;;5.45;;
16775;SDS011;8505;49.456;8.164;2023-06-14T00:29:18;8.45;;;5.25;;
16775;SDS011;8505;49.456;8.164;2023-06-14T00:31:46;6.93;;;5.07;;
16775;SDS011;8505;49.456;8.164;2023-06-14T00:34:14;9.47;;;5.20;;
16775;SDS011;8505;49.456;8.164;2023-06-14T00:36:41;9.02;;;5.43;;
16775;SDS011;8505;49.456;8.164;2023-06-14T00:39:09;10.43;;;5.70;;
16775;SDS011;8505;49.456;8.164;2023-06-14T00:41:38;8.77;;;5.28;;
16775;SDS011;8505;49.456;8.164;2023-06-14T00:44:07;9.73;;;5.30;;
16775;SDS011;8505;49.456;8.164;2023-06-14T00:46:35;6.95;;;5.32;;
16775;SDS011;8505;49.456;8.164;2023-06-14T00:49:03;8.73;;;5.45;;
16775;SDS011;8505;49.456;8.164;2023-06-14T00:51:31;8.48;;;5.35;;
16775;SDS011;8505;49.456;8.164;2023-06-14T00:53:58;7.55;;;5.60;;
16775;SDS011;8505;49.456;8.164;2023-06-14T00:56:26;8.95;;;5.50;;
16775;SDS011;8505;49.456;8.164;2023-06-14T00:58:54;9.45;;;5.65;;
16775;SDS011;8505;49.456;8.164;2023-06-14T01:01:24;8.30;;;5.70;;
16775;SDS011;8505;49.456;8.164;2023-06-14T01:03:52;9.98;;;5.97;;
16775;SDS011;8505;49.456;8.164;2023-06-14T01:06:23;8.60;;;5.63;;
16775;SDS011;8505;49.456;8.164;2023-06-14T01:08:57;7.82;;;5.28;;
16775;SDS011;8505;49.456;8.164;2023-06-14T01:11:36;7.50;;;5.43;;
16775;SDS011;8505;49.456;8.164;2023-06-14T01:14:18;7.88;;;5.50;;
16775;SDS011;8505;49.456;8.164;2023-06-14T01:16:49;9.95;;;5.80;;
16775;SDS011;8505;49.456;8.164;2023-06-14T01:19:19;9.23;;;5.82;;
16775;SDS011;8505;49.456;8.164;2023-06-14T01:21:52;8.07;;;5.60;;
16775;SDS011;8505;49.456;8.164;2023-06-14T01:24:21;7.40;;;5.50;;
16775;SDS011;8505;49.456;8.164;2023-06-14T01:26:52;9.90;;;5.80;;
16775;SDS011;8505;49.456;8.164;2023-06-14T01:29:23;7.93;;;5.75;;
16775;SDS011;8505;49.456;8.164;2023-06-14T01:31:54;8.57;;;5.53;;
16775;SDS011;8505;49.456;8.164;2023-06-14T01:34:21;7.72;;;5.70;;
16775;SDS011;8505;49.456;8.164;2023-06-14T01:36:49;7.35;;;5.53;;
16775;SDS011;8505;49.456;8.164;2023-06-14T01:39:20;6.90;;;5.50;;
16775;SDS011;8505;49.456;8.164;2023-06-14T01:41:49;8.90;;;6.05;;
16775;SDS011;8505;49.456;8.164;2023-06-14T01:44:19;8.57;;;5.57;;
16775;SDS011;8505;49.456;8.164;2023-06-14T01:46:47;8.32;;;5.85;;
16775;SDS011;8505;49.456;8.164;2023-06-14T01:49:15;7.63;;;5.90;;
16775;SDS011;8505;49.456;8.164;2023-06-14T01:51:43;9.23;;;5.53;;
16775;SDS011;8505;49.456;8.164;2023-06-14T01:54:11;7.50;;;5.70;;
16775;SDS011;8505;49.456;8.164;2023-06-14T01:56:40;8.45;;;5.50;;
16775;SDS011;8505;49.456;8.164;2023-06-14T01:59:08;10.02;;;6.07;;
16775;SDS011;8505;49.456;8.164;2023-06-14T02:01:36;8.07;;;5.70;;
16775;SDS011;8505;49.456;8.164;2023-06-14T02:04:04;9.50;;;5.60;;
16775;SDS011;8505;49.456;8.164;2023-06-14T02:06:32;10.02;;;5.85;;
16775;SDS011;8505;49.456;8.164;2023-06-14T02:09:00;8.60;;;5.90;;
16775;SDS011;8505;49.456;8.164;2023-06-14T02:11:29;7.40;;;5.85;;
16775;SDS011;8505;49.456;8.164;2023-06-14T02:13:58;9.52;;;6.10;;
16775;SDS011;8505;49.456;8.164;2023-06-14T02:16:26;8.55;;;5.70;;
16775;SDS011;8505;49.456;8.164;2023-06-14T02:18:56;9.95;;;5.97;;
16775;SDS011;8505;49.456;8.164;2023-06-14T02:21:24;9.20;;;5.93;;
16775;SDS011;8505;49.456;8.164;2023-06-14T02:23:51;11.43;;;5.90;;
16775;SDS011;8505;49.456;8.164;2023-06-14T02:26:19;8.63;;;5.97;;
16775;SDS011;8505;49.456;8.164;2023-06-14T02:28:47;9.70;;;5.80;;
16775;SDS011;8505;49.456;8.164;2023-06-14T02:31:16;10.10;;;5.85;;
16775;SDS011;8505;49.456;8.164;2023-06-14T02:33:44;9.88;;;6.25;;
16775;SDS011;8505;49.456;8.164;2023-06-14T02:36:12;10.77;;;6.07;;
16775;SDS011;8505;49.456;8.164;2023-06-14T02:38:39;10.70;;;5.75;;
16775;SDS011;8505;49.456;8.164;2023-06-14T02:41:07;8.43;;;5.85;;
16775;SDS011;8505;49.456;8.164;2023-06-14T02:43:35;9.10;;;6.00;;
16775;SDS011;8505;49.456;8.164;2023-06-14T02:46:03;9.52;;;5.90;;
16775;SDS011;8505;49.456;8.164;2023-06-14T02:48:32;8.55;;;6.10;;
16775;SDS011;8505;49.456;8.164;2023-06-14T02:51:00;10.20;;;5.90;;
16775;SDS011;8505;49.456;8.164;2023-06-14T02:53:28;9.88;;;6.15;;
16775;SDS011;8505;49.456;8.164;2023-06-14T02:55:56;8.98;;;6.20;;
16775;SDS011;8505;49.456;8.164;2023-06-14T02:58:24;8.73;;;5.90;;
16775;SDS011;8505;49.456;8.164;2023-06-14T03:00:52;9.33;;;6.10;;
16775;SDS011;8505;49.456;8.164;2023-06-14T03:03:20;8.87;;;5.93;;
16775;SDS011;8505;49.456;8.164;2023-06-14T03:05:52;9.93;;;6.03;;
16775;SDS011;8505;49.456;8.164;2023-06-14T03:08:21;9.60;;;5.82;;
16775;SDS011;8505;49.456;8.164;2023-06-14T03:10:53;9.77;;;6.40;;
16775;SDS011;8505;49.456;8.164;2023-06-14T03:13:22;10.95;;;6.30;;
16775;SDS011;8505;49.456;8.164;2023-06-14T03:15:50;8.85;;;5.80;;
16775;SDS011;8505;49.456;8.164;2023-06-14T03:18:18;9.85;;;6.20;;
16775;SDS011;8505;49.456;8.164;2023-06-14T03:20:54;8.95;;;6.40;;
16775;SDS011;8505;49.456;8.164;2023-06-14T03:23:23;9.83;;;6.27;;
16775;SDS011;8505;49.456;8.164;2023-06-14T03:25:52;11.25;;;6.18;;
16775;SDS011;8505;49.456;8.164;2023-06-14T03:28:19;8.90;;;6.00;;
16775;SDS011;8505;49.456;8.164;2023-06-14T03:30:47;9.32;;;6.15;;
16775;SDS011;8505;49.456;8.164;2023-06-14T03:33:15;9.75;;;6.10;;
16775;SDS011;8505;49.456;8.164;2023-06-14T03:35:43;8.77;;;6.22;;
16775;SDS011;8505;49.456;8.164;2023-06-14T03:38:12;8.90;;;6.00;;
16775;SDS011;8505;49.456;8.164;2023-06-14T03:40:40;9.15;;;6.00;;
16775;SDS011;8505;49.456;8.164;2023-06-14T03:43:08;9.55;;;6.40;;
16775;SDS011;8505;49.456;8.164;2023-06-14T03:45:36;9.63;;;5.93;;
16775;SDS011;8505;49.456;8.164;2023-06-14T03:48:04;8.07;;;6.28;;
16775;SDS011;8505;49.456;8.164;2023-06-14T03:50:33;9.13;;;6.40;;
16775;SDS011;8505;49.456;8.164;2023-06-14T03:53:04;11.10;;;6.13;;
16775;SDS011;8505;49.456;8.164;2023-06-14T03:55:33;9.20;;;6.38;;
16775;SDS011;8505;49.456;8.164;2023-06-14T03:58:04;10.20;;;6.38;;
16775;SDS011;8505;49.456;8.164;2023-06-14T04:00:32;9.15;;;6.47;;
16775;SDS011;8505;49.456;8.164;2023-06-14T04:03:00;8.77;;;6.40;;
16775;SDS011;8505;49.456;8.164;2023-06-14T04:05:30;10.35;;;6.28;;
16775;SDS011;8505;49.456;8.164;2023-06-14T04:07:58;8.57;;;6.20;;
16775;SDS011;8505;49.456;8.164;2023-06-14T04:10:27;9.43;;;6.30;;
16775;SDS011;8505;49.456;8.164;2023-06-14T04:12:56;9.52;;;6.38;;
16775;SDS011;8505;49.456;8.164;2023-06-14T04:15:24;10.27;;;6.25;;
16775;SDS011;8505;49.456;8.164;2023-06-14T04:17:56;9.10;;;6.10;;
16775;SDS011;8505;49.456;8.164;2023-06-14T04:20:24;9.38;;;6.05;;
16775;SDS011;8505;49.456;8.164;2023-06-14T04:22:52;9.90;;;6.20;;
16775;SDS011;8505;49.456;8.164;2023-06-14T04:25:23;8.53;;;5.70;;
16775;SDS011;8505;49.456;8.164;2023-06-14T04:27:52;10.65;;;5.90;;
16775;SDS011;8505;49.456;8.164;2023-06-14T04:30:23;7.88;;;5.65;;
16775;SDS011;8505;49.456;8.164;2023-06-14T04:32:52;10.70;;;5.68;;
16775;SDS011;8505;49.456;8.164;2023-06-14T04:35:22;9.60;;;5.30;;
16775;SDS011;8505;49.456;8.164;2023-06-14T04:37:51;8.80;;;5.20;;
16775;SDS011;8505;49.456;8.164;2023-06-14T04:40:19;9.30;;;5.22;;
16775;SDS011;8505;49.456;8.164;2023-06-14T04:42:47;9.18;;;5.15;;
16775;SDS011;8505;49.456;8.164;2023-06-14T04:45:17;10.07;;;5.25;;
16775;SDS011;8505;49.456;8.164;2023-06-14T04:47:46;9.13;;;5.43;;
16775;SDS011;8505;49.456;8.164;2023-06-14T04:50:14;8.37;;;5.23;;
16775;SDS011;8505;49.456;8.164;2023-06-14T04:52:44;8.18;;;4.85;;
16775;SDS011;8505;49.456;8.164;2023-06-14T04:55:12;9.68;;;4.88;;
16775;SDS011;8505;49.456;8.164;2023-06-14T04:57:40;9.68;;;5.20;;
16775;SDS011;8505;49.456;8.164;2023-06-14T05:00:08;9.70;;;4.80;;
16775;SDS011;8505;49.456;8.164;2023-06-14T05:02:38;8.07;;;4.57;;
16775;SDS011;8505;49.456;8.164;2023-06-14T05:05:08;9.35;;;4.75;;
16775;SDS011;8505;49.456;8.164;2023-06-14T05:07:37;11.07;;;4.95;;
16775;SDS011;8505;49.456;8.164;2023-06-14T05:10:08;9.93;;;4.83;;
16775;SDS011;8505;49.456;8.164;2023-06-14T05:12:36;8.80;;;4.60;;
16775;SDS011;8505;49.456;8.164;2023-06-14T05:15:05;8.65;;;4.32;;
16775;SDS011;8505;49.456;8.164;2023-06-14T05:17:35;7.88;;;4.30;;
16775;SDS011;8505;49.456;8.164;2023-06-14T05:20:04;8.80;;;4.85;;
16775;SDS011;8505;49.456;8.164;2023-06-14T05:22:34;8.40;;;4.68;;
16775;SDS011;8505;49.456;8.164;2023-06-14T05:25:02;8.95;;;4.57;;
16775;SDS011;8505;49.456;8.164;2023-06-14T05:27:30;10.50;;;4.68;;
16775;SDS011;8505;49.456;8.164;2023-06-14T05:29:57;6.03;;;4.27;;
16775;SDS011;8505;49.456;8.164;2023-06-14T05:32:25;9.40;;;4.53;;
16775;SDS011;8505;49.456;8.164;2023-06-14T05:34:53;9.50;;;4.50;;
16775;SDS011;8505;49.456;8.164;2023-06-14T05:37:21;7.03;;;4.40;;
16775;SDS011;8505;49.456;8.164;2023-06-14T05:39:50;9.83;;;4.70;;
16775;SDS011;8505;49.456;8.164;2023-06-14T05:42:18;8.18;;;4.35;;
16775;SDS011;8505;49.456;8.164;2023-06-14T05:44:46;8.07;;;4.30;;
16775;SDS011;8505;49.456;8.164;2023-06-14T05:47:13;9.20;;;4.67;;
16775;SDS011;8505;49.456;8.164;2023-06-14T05:49:41;8.98;;;4.47;;
16775;SDS011;8505;49.456;8.164;2023-06-14T05:52:09;9.98;;;4.40;;
16775;SDS011;8505;49.456;8.164;2023-06-14T05:54:39;10.65;;;4.57;;
16775;SDS011;8505;49.456;8.164;2023-06-14T05:57:09;8.98;;;4.30;;
16775;SDS011;8505;49.456;8.164;2023-06-14T05:59:38;7.80;;;4.30;;
16775;SDS011;8505;49.456;8.164;2023-06-14T06:02:06;8.47;;;4.40;;
16775;SDS011;8505;49.456;8.164;2023-06-14T06:04:34;10.88;;;4.50;;
16775;SDS011;8505;49.456;8.164;2023-06-14T06:07:02;12.60;;;4.47;;
16775;SDS011;8505;49.456;8.164;2023-06-14T06:09:32;10.63;;;4.22;;
16775;SDS011;8505;49.456;8.164;2023-06-14T06:12:00;10.82;;;4.63;;
16775;SDS011;8505;49.456;8.164;2023-06-14T06:14:29;10.13;;;4.40;;
16775;SDS011;8505;49.456;8.164;2023-06-14T06:16:57;9.60;;;4.72;;
16775;SDS011;8505;49.456;8.164;2023-06-14T06:19:25;8.75;;;4.72;;
16775;SDS011;8505;49.456;8.164;2023-06-14T06:21:53;9.82;;;4.50;;
16775;SDS011;8505;49.456;8.164;2023-06-14T06:24:21;8.63;;;4.57;;
16775;SDS011;8505;49.456;8.164;2023-06-14T06:26:49;11.82;;;4.70;;
16775;SDS011;8505;49.456;8.164;2023-06-14T06:29:17;12.85;;;4.55;;
16775;SDS011;8505;49.456;8.164;2023-06-14T06:31:46;11.45;;;4.78;;
16775;SDS011;8505;49.456;8.164;2023-06-14T06:34:14;7.30;;;4.28;;
16775;SDS011;8505;49.456;8.164;2023-06-14T06:36:42;10.30;;;4.57;;
16775;SDS011;8505;49.456;8.164;2023-06-14T06:39:10;9.13;;;4.60;;
16775;SDS011;8505;49.456;8.164;2023-06-14T06:41:38;9.48;;;4.50;;
16775;SDS011;8505;49.456;8.164;2023-06-14T06:44:06;7.65;;;4.22;;
16775;SDS011;8505;49.456;8.164;2023-06-14T06:46:36;7.60;;;4.40;;
16775;SDS011;8505;49.456;8.164;2023-06-14T06:49:08;11.82;;;4.72;;
16775;SDS011;8505;49.456;8.164;2023-06-14T06:54:09;9.43;;;4.60;;
16775;SDS011;8505;49.456;8.164;2023-06-14T06:56:37;9.97;;;4.80;;
16775;SDS011;8505;49.456;8.164;2023-06-14T06:59:06;12.57;;;4.70;;
16775;SDS011;8505;49.456;8.164;2023-06-14T07:01:33;7.78;;;4.53;;
16775;SDS011;8505;49.456;8.164;2023-06-14T07:04:03;7.90;;;4.20;;
16775;SDS011;8505;49.456;8.164;2023-06-14T07:06:33;8.57;;;4.38;;
16775;SDS011;8505;49.456;8.164;2023-06-14T07:09:01;8.93;;;4.60;;
16775;SDS011;8505;49.456;8.164;2023-06-14T07:11:31;7.88;;;4.60;;
16775;SDS011;8505;49.456;8.164;2023-06-14T07:13:59;8.70;;;4.50;;
16775;SDS011;8505;49.456;8.164;2023-06-14T07:16:27;9.05;;;4.80;;
16775;SDS011;8505;49.456;8.164;2023-06-14T07:18:54;9.30;;;4.65;;
16775;SDS011;8505;49.456;8.164;2023-06-14T07:21:22;9.55;;;4.60;;
16775;SDS011;8505;49.456;8.164;2023-06-14T07:23:53;9.68;;;4.70;;
16775;SDS011;8505;49.456;8.164;2023-06-14T07:26:21;12.13;;;4.87;;
16775;SDS011;8505;49.456;8.164;2023-06-14T07:28:50;11.97;;;5.00;;
16775;SDS011;8505;49.456;8.164;2023-06-14T07:31:18;8.80;;;4.50;;
16775;SDS011;8505;49.456;8.164;2023-06-14T07:33:45;9.48;;;4.45;;
16775;SDS011;8505;49.456;8.164;2023-06-14T07:36:13;8.77;;;4.63;;
16775;SDS011;8505;49.456;8.164;2023-06-14T07:38:41;10.25;;;4.53;;
16775;SDS011;8505;49.456;8.164;2023-06-14T07:41:11;10.02;;;4.55;;
16775;SDS011;8505;49.456;8.164;2023-06-14T07:43:38;8.37;;;4.30;;
16775;SDS011;8505;49.456;8.164;2023-06-14T07:46:06;12.65;;;4.80;;
16775;SDS011;8505;49.456;8.164;2023-06-14T07:48:36;9.60;;;4.50;;
16775;SDS011;8505;49.456;8.164;2023-06-14T07:51:03;11.20;;;4.30;;
16775;SDS011;8505;49.456;8.164;2023-06-14T07:53:31;10.70;;;4.50;;
16775;SDS011;8505;49.456;8.164;2023-06-14T07:55:59;7.90;;;4.67;;
16775;SDS011;8505;49.456;8.164;2023-06-14T07:58:30;8.63;;;4.20;;
16775;SDS011;8505;49.456;8.164;2023-06-14T08:00:58;12.43;;;4.50;;
16775;SDS011;8505;49.456;8.164;2023-06-14T08:03:26;9.10;;;4.50;;
16775;SDS011;8505;49.456;8.164;2023-06-14T08:05:54;9.55;;;4.80;;
16775;SDS011;8505;49.456;8.164;2023-06-14T08:08:22;8.52;;;4.70;;
16775;SDS011;8505;49.456;8.164;2023-06-14T08:10:50;8.25;;;4.40;;
16775;SDS011;8505;49.456;8.164;2023-06-14T08:13:17;8.82;;;4.50;;
16775;SDS011;8505;49.456;8.164;2023-06-14T08:15:47;11.43;;;4.45;;
16775;SDS011;8505;49.456;8.164;2023-06-14T08:18:15;9.00;;;4.47;;
16775;SDS011;8505;49.456;8.164;2023-06-14T08:20:43;9.35;;;4.32;;
16775;SDS011;8505;49.456;8.164;2023-06-14T08:23:11;7.97;;;4.10;;
16775;SDS011;8505;49.456;8.164;2023-06-14T08:25:39;8.77;;;4.20;;
16775;SDS011;8505;49.456;8.164;2023-06-14T08:28:07;9.02;;;4.40;;
16775;SDS011;8505;49.456;8.164;2023-06-14T08:30:35;7.57;;;4.20;;
16775;SDS011;8505;49.456;8.164;2023-06-14T08:33:04;8.20;;;4.63;;
16775;SDS011;8505;49.456;8.164;2023-06-14T08:35:42;9.03;;;4.20;;
16775;SDS011;8505;49.456;8.164;2023-06-14T08:38:11;7.68;;;4.00;;
16775;SDS011;8505;49.456;8.164;2023-06-14T08:40:39;9.87;;;4.07;;
16775;SDS011;8505;49.456;8.164;2023-06-14T08:43:08;7.30;;;3.83;;
16775;SDS011;8505;49.456;8.164;2023-06-14T08:45:36;8.32;;;3.90;;
16775;SDS011;8505;49.456;8.164;2023-06-14T08:48:06;7.82;;;3.90;;
16775;SDS011;8505;49.456;8.164;2023-06-14T08:50:36;7.63;;;3.70;;
16775;SDS011;8505;49.456;8.164;2023-06-14T08:53:08;8.43;;;4.10;;
16775;SDS011;8505;49.456;8.164;2023-06-14T08:55:46;5.78;;;3.80;;
16775;SDS011;8505;49.456;8.164;2023-06-14T08:58:14;5.68;;;3.63;;
16775;SDS011;8505;49.456;8.164;2023-06-14T09:00:42;7.32;;;3.47;;
16775;SDS011;8505;49.456;8.164;2023-06-14T09:03:12;5.90;;;3.15;;
16775;SDS011;8505;49.456;8.164;2023-06-14T09:05:41;6.13;;;3.47;;
16775;SDS011;8505;49.456;8.164;2023-06-14T09:08:10;8.43;;;3.67;;
16775;SDS011;8505;49.456;8.164;2023-06-14T09:10:38;6.72;;;3.50;;
16775;SDS011;8505;49.456;8.164;2023-06-14T09:13:07;5.32;;;3.00;;
16775;SDS011;8505;49.456;8.164;2023-06-14T09:15:35;8.63;;;3.10;;
16775;SDS011;8505;49.456;8.164;2023-06-14T09:18:03;6.72;;;2.80;;
16775;SDS011;8505;49.456;8.164;2023-06-14T09:20:34;7.27;;;2.80;;
16775;SDS011;8505;49.456;8.164;2023-06-14T09:23:02;3.40;;;1.98;;
16775;SDS011;8505;49.456;8.164;2023-06-14T09:25:32;3.05;;;1.90;;
16775;SDS011;8505;49.456;8.164;2023-06-14T09:28:06;6.10;;;2.28;;
16775;SDS011;8505;49.456;8.164;2023-06-14T09:30:36;6.28;;;2.70;;
16775;SDS011;8505;49.456;8.164;2023-06-14T09:33:04;6.50;;;3.00;;
16775;SDS011;8505;49.456;8.164;2023-06-14T09:35:34;5.18;;;2.92;;
16775;SDS011;8505;49.456;8.164;2023-06-14T09:38:02;5.50;;;3.00;;
16775;SDS011;8505;49.456;8.164;2023-06-14T09:40:33;7.30;;;2.90;;
16775;SDS011;8505;49.456;8.164;2023-06-14T09:43:03;5.72;;;3.05;;
16775;SDS011;8505;49.456;8.164;2023-06-14T09:45:33;6.10;;;2.80;;
16775;SDS011;8505;49.456;8.164;2023-06-14T09:48:00;4.97;;;2.85;;
16775;SDS011;8505;49.456;8.164;2023-06-14T09:50:35;7.03;;;3.42;;
16775;SDS011;8505;49.456;8.164;2023-06-14T09:53:05;5.00;;;2.90;;
16775;SDS011;8505;49.456;8.164;2023-06-14T09:55:34;6.53;;;2.93;;
16775;SDS011;8505;49.456;8.164;2023-06-14T09:58:05;6.10;;;3.00;;
16775;SDS011;8505;49.456;8.164;2023-06-14T10:00:35;5.93;;;3.03;;
16775;SDS011;8505;49.456;8.164;2023-06-14T10:03:05;7.75;;;3.28;;
16775;SDS011;8505;49.456;8.164;2023-06-14T10:05:41;6.90;;;3.10;;
16775;SDS011;8505;49.456;8.164;2023-06-14T10:08:13;4.90;;;3.05;;
16775;SDS011;8505;49.456;8.164;2023-06-14T10:10:43;6.43;;;2.95;;
16775;SDS011;8505;49.456;8.164;2023-06-14T10:13:11;6.03;;;3.10;;
16775;SDS011;8505;49.456;8.164;2023-06-14T10:15:41;5.90;;;3.00;;
16775;SDS011;8505;49.456;8.164;2023-06-14T10:18:19;5.88;;;2.70;;
16775;SDS011;8505;49.456;8.164;2023-06-14T10:20:58;5.70;;;2.85;;
16775;SDS011;8505;49.456;8.164;2023-06-14T10:23:35;6.53;;;2.80;;
16775;SDS011;8505;49.456;8.164;2023-06-14T10:26:13;4.05;;;2.60;;
16775;SDS011;8505;49.456;8.164;2023-06-14T10:28:50;6.53;;;2.57;;
16775;SDS011;8505;49.456;8.164;2023-06-14T10:31:33;4.45;;;2.67;;
16775;SDS011;8505;49.456;8.164;2023-06-14T10:34:08;5.40;;;2.70;;
16775;SDS011;8505;49.456;8.164;2023-06-14T10:36:38;4.60;;;2.60;;
16775;SDS011;8505;49.456;8.164;2023-06-14T10:39:11;6.43;;;2.60;;
16775;SDS011;8505;49.456;8.164;2023-06-14T10:41:50;4.40;;;2.50;;
16775;SDS011;8505;49.456;8.164;2023-06-14T10:47:07;6.35;;;2.70;;
16775;SDS011;8505;49.456;8.164;2023-06-14T10:49:37;4.70;;;2.60;;
16775;SDS011;8505;49.456;8.164;2023-06-14T10:52:11;5.68;;;2.70;;
16775;SDS011;8505;49.456;8.164;2023-06-14T10:57:35;4.93;;;2.63;;
16775;SDS011;8505;49.456;8.164;2023-06-14T11:00:17;4.77;;;2.87;;
16775;SDS011;8505;49.456;8.164;2023-06-14T11:06:06;3.45;;;2.47;;
16775;SDS011;8505;49.456;8.164;2023-06-14T11:08:56;6.15;;;2.60;;
16775;SDS011;8505;49.456;8.164;2023-06-14T11:11:38;6.20;;;2.42;;
16775;SDS011;8505;49.456;8.164;2023-06-14T11:14:10;5.10;;;2.70;;
16775;SDS011;8505;49.456;8.164;2023-06-14T11:16:37;6.65;;;2.75;;
16775;SDS011;8505;49.456;8.164;2023-06-14T11:19:05;4.22;;;2.60;;
16775;SDS011;8505;49.456;8.164;2023-06-14T11:21:33;4.63;;;2.40;;
16775;SDS011;8505;49.456;8.164;2023-06-14T11:24:03;3.83;;;2.60;;
16775;SDS011;8505;49.456;8.164;2023-06-14T11:26:31;5.70;;;2.80;;
16775;SDS011;8505;49.456;8.164;2023-06-14T11:29:01;3.20;;;2.40;;
16775;SDS011;8505;49.456;8.164;2023-06-14T11:31:29;3.70;;;2.60;;
16775;SDS011;8505;49.456;8.164;2023-06-14T11:33:58;5.57;;;2.72;;
16775;SDS011;8505;49.456;8.164;2023-06-14T11:36:27;6.53;;;3.38;;
16775;SDS011;8505;49.456;8.164;2023-06-14T11:39:00;5.55;;;2.47;;
16775;SDS011;8505;49.456;8.164;2023-06-14T11:41:34;4.15;;;2.50;;
16775;SDS011;8505;49.456;8.164;2023-06-14T11:44:04;3.10;;;2.40;;
16775;SDS011;8505;49.456;8.164;2023-06-14T11:46:32;4.38;;;2.25;;
16775;SDS011;8505;49.456;8.164;2023-06-14T11:49:01;4.63;;;2.20;;
16775;SDS011;8505;49.456;8.164;2023-06-14T11:51:31;4.50;;;2.40;;
16775;SDS011;8505;49.456;8.164;2023-06-14T11:54:00;3.60;;;2.20;;
16775;SDS011;8505;49.456;8.164;2023-06-14T11:56:29;6.80;;;2.20;;
16775;SDS011;8505;49.456;8.164;2023-06-14T11:58:59;3.25;;;2.33;;
16775;SDS011;8505;49.456;8.164;2023-06-14T12:01:29;5.18;;;2.20;;
16775;SDS011;8505;49.456;8.164;2023-06-14T12:03:57;4.82;;;2.28;;
16775;SDS011;8505;49.456;8.164;2023-06-14T12:06:27;3.40;;;2.20;;
16775;SDS011;8505;49.456;8.164;2023-06-14T12:09:00;3.65;;;2.08;;
16775;SDS011;8505;49.456;8.164;2023-06-14T12:11:33;3.13;;;1.90;;
16775;SDS011;8505;49.456;8.164;2023-06-14T12:14:04;3.40;;;1.98;;
16775;SDS011;8505;49.456;8.164;2023-06-14T12:16:33;4.33;;;2.30;;
16775;SDS011;8505;49.456;8.164;2023-06-14T12:19:08;3.67;;;2.00;;
16775;SDS011;8505;49.456;8.164;2023-06-14T12:21:37;3.75;;;2.00;;
16775;SDS011;8505;49.456;8.164;2023-06-14T12:24:06;3.95;;;2.40;;
16775;SDS011;8505;49.456;8.164;2023-06-14T12:26:38;2.80;;;2.00;;
16775;SDS011;8505;49.456;8.164;2023-06-14T12:29:08;3.55;;;2.10;;
16775;SDS011;8505;49.456;8.164;2023-06-14T12:31:39;3.88;;;2.00;;
16775;SDS011;8505;49.456;8.164;2023-06-14T12:34:07;5.05;;;2.42;;
16775;SDS011;8505;49.456;8.164;2023-06-14T12:36:35;3.83;;;2.05;;
16775;SDS011;8505;49.456;8.164;2023-06-14T12:39:08;4.97;;;2.15;;
16775;SDS011;8505;49.456;8.164;2023-06-14T12:41:36;3.10;;;1.87;;
16775;SDS011;8505;49.456;8.164;2023-06-14T12:44:04;4.38;;;2.20;;
16775;SDS011;8505;49.456;8.164;2023-06-14T12:46:33;3.78;;;2.40;;
16775;SDS011;8505;49.456;8.164;2023-06-14T12:49:03;5.50;;;2.30;;
16775;SDS011;8505;49.456;8.164;2023-06-14T12:51:31;3.50;;;2.38;;
16775;SDS011;8505;49.456;8.164;2023-06-14T12:53:59;4.50;;;2.40;;
16775;SDS011;8505;49.456;8.164;2023-06-14T12:56:28;6.47;;;2.65;;
16775;SDS011;8505;49.456;8.164;2023-06-14T12:58:56;5.00;;;2.50;;
16775;SDS011;8505;49.456;8.164;2023-06-14T13:01:24;5.03;;;2.70;;
16775;SDS011;8505;49.456;8.164;2023-06-14T13:03:53;5.25;;;2.67;;
16775;SDS011;8505;49.456;8.164;2023-06-14T13:06:21;3.65;;;2.42;;
16775;SDS011;8505;49.456;8.164;2023-06-14T13:08:49;5.13;;;2.90;;
16775;SDS011;8505;49.456;8.164;2023-06-14T13:11:17;4.47;;;2.95;;
16775;SDS011;8505;49.456;8.164;2023-06-14T13:13:45;4.70;;;3.03;;
16775;SDS011;8505;49.456;8.164;2023-06-14T13:16:12;5.95;;;3.08;;
16775;SDS011;8505;49.456;8.164;2023-06-14T13:18:41;4.45;;;3.03;;
16775;SDS011;8505;49.456;8.164;2023-06-14T13:21:10;5.40;;;3.05;;
16775;SDS011;8505;49.456;8.164;2023-06-14T13:23:38;5.53;;;3.05;;
16775;SDS011;8505;49.456;8.164;2023-06-14T13:26:06;5.38;;;3.10;;
16775;SDS011;8505;49.456;8.164;2023-06-14T13:28:33;4.28;;;2.85;;
16775;SDS011;8505;49.456;8.164;2023-06-14T13:31:01;5.03;;;3.03;;
16775;SDS011;8505;49.456;8.164;2023-06-14T13:33:30;5.22;;;2.75;;
16775;SDS011;8505;49.456;8.164;2023-06-14T13:35:59;6.07;;;2.80;;
16775;SDS011;8505;49.456;8.164;2023-06-14T13:38:28;4.30;;;2.80;;
16775;SDS011;8505;49.456;8.164;2023-06-14T13:40:56;3.92;;;2.80;;
16775;SDS011;8505;49.456;8.164;2023-06-14T13:43:24;5.05;;;2.97;;
16775;SDS011;8505;49.456;8.164;2023-06-14T13:45:52;7.03;;;3.13;;
16775;SDS011;8505;49.456;8.164;2023-06-14T13:48:37;6.03;;;2.75;;
16775;SDS011;8505;49.456;8.164;2023-06-14T13:51:23;8.07;;;3.13;;
16775;SDS011;8505;49.456;8.164;2023-06-14T13:54:12;4.27;;;2.80;;
16775;SDS011;8505;49.456;8.164;2023-06-14T13:56:41;5.32;;;2.90;;
16775;SDS011;8505;49.456;8.164;2023-06-14T13:59:09;4.72;;;2.83;;
16775;SDS011;8505;49.456;8.164;2023-06-14T14:01:55;5.73;;;2.97;;
16775;SDS011;8505;49.456;8.164;2023-06-14T14:04:23;4.85;;;2.97;;
16775;SDS011;8505;49.456;8.164;2023-06-14T14:07:09;5.03;;;2.95;;
16775;SDS011;8505;49.456;8.164;2023-06-14T14:09:56;6.47;;;3.15;;
16775;SDS011;8505;49.456;8.164;2023-06-14T14:12:24;3.65;;;2.95;;
16775;SDS011;8505;49.456;8.164;2023-06-14T14:14:52;4.60;;;3.05;;
16775;SDS011;8505;49.456;8.164;2023-06-14T14:17:20;5.07;;;2.95;;
16775;SDS011;8505;49.456;8.164;2023-06-14T14:19:48;5.53;;;3.08;;
16775;SDS011;8505;49.456;8.164;2023-06-14T14:22:33;6.22;;;3.05;;
16775;SDS011;8505;49.456;8.164;2023-06-14T14:25:03;7.07;;;3.10;;
16775;SDS011;8505;49.456;8.164;2023-06-14T14:27:48;4.55;;;3.03;;
16775;SDS011;8505;49.456;8.164;2023-06-14T14:30:16;4.47;;;2.97;;
16775;SDS011;8505;49.456;8.164;2023-06-14T14:32:46;5.88;;;2.70;;
16775;SDS011;8505;49.456;8.164;2023-06-14T14:35:14;3.85;;;2.80;;
16775;SDS011;8505;49.456;8.164;2023-06-14T14:37:42;6.97;;;2.88;;
16775;SDS011;8505;49.456;8.164;2023-06-14T14:40:12;5.35;;;3.05;;
16775;SDS011;8505;49.456;8.164;2023-06-14T14:42:41;7.70;;;3.10;;
16775;SDS011;8505;49.456;8.164;2023-06-14T14:45:09;6.80;;;3.03;;
16775;SDS011;8505;49.456;8.164;2023-06-14T14:47:37;6.57;;;3.00;;
16775;SDS011;8505;49.456;8.164;2023-06-14T14:50:06;5.33;;;3.03;;
16775;SDS011;8505;49.456;8.164;2023-06-14T14:52:35;5.07;;;3.10;;
16775;SDS011;8505;49.456;8.164;2023-06-14T14:55:03;5.38;;;3.47;;
16775;SDS011;8505;49.456;8.164;2023-06-14T14:57:33;5.82;;;2.97;;
16775;SDS011;8505;49.456;8.164;2023-06-14T15:00:03;4.93;;;3.00;;
16775;SDS011;8505;49.456;8.164;2023-06-14T15:02:31;5.18;;;2.65;;
16775;SDS011;8505;49.456;8.164;2023-06-14T15:05:00;6.90;;;3.10;;
16775;SDS011;8505;49.456;8.164;2023-06-14T15:07:30;5.65;;;2.90;;
16775;SDS011;8505;49.456;8.164;2023-06-14T15:09:59;5.68;;;2.80;;
16775;SDS011;8505;49.456;8.164;2023-06-14T15:12:27;5.55;;;2.80;;
16775;SDS011;8505;49.456;8.164;2023-06-14T15:14:57;7.63;;;2.85;;
16775;SDS011;8505;49.456;8.164;2023-06-14T15:17:25;6.50;;;3.00;;
16775;SDS011;8505;49.456;8.164;2023-06-14T15:19:54;6.93;;;2.93;;
16775;SDS011;8505;49.456;8.164;2023-06-14T15:22:22;4.88;;;2.90;;
16775;SDS011;8505;49.456;8.164;2023-06-14T15:24:49;5.50;;;3.00;;
16775;SDS011;8505;49.456;8.164;2023-06-14T15:27:18;5.78;;;3.08;;